Time;durP1;ratioP1;P1;durP2;ratioP2;P2;SDS_P1;SDS_P2;PMS_P1;PMS_P2;Temp;Humidity;BMP_temperature;BMP_pressure;BME280_temperature;BME280_humidity;BME280_pressure;Samples;Min_cycle;Max_cycle;Signal;HPM_P1;HPM_P2
2023/05/13 00:00:36;;;;;;;4.32;2.70;;;;;;;;;;4994524;28;20022;-68
2023/05/13 00:03:02;;;;;;;3.08;2.58;;;;;;;;;;4994494;28;20023;-68
2023/05/13 00:05:29;;;;;;;3.80;2.35;;;;;;;;;;4994379;28;20406;-69
2023/05/13 00:07:55;;;;;;;4.45;2.38;;;;;;;;;;4994450;28;20023;-69
2023/05/13 00:10:21;;;;;;;3.60;2.70;;;;;;;;;;4994192;28;20046;-68
2023/05/13 00:12:48;;;;;;;6.30;2.83;;;;;;;;;;4994186;28;20479;-69
2023/05/13 00:15:14;;;;;;;7.75;3.08;;;;;;;;;;4994441;28;20040;-68
2023/05/13 00:17:40;;;;;;;4.70;3.22;;;;;;;;;;4994411;28;20062;-69
2023/05/13 00:20:07;;;;;;;4.85;3.35;;;;;;;;;;4994262;28;20022;-68
2023/05/13 00:22:33;;;;;;;3.53;3.22;;;;;;;;;;5025695;28;20514;-68
2023/05/13 00:25:00;;;;;;;7.55;3.50;;;;;;;;;;4994468;28;20031;-68
2023/05/13 00:27:26;;;;;;;3.92;3.50;;;;;;;;;;4993988;28;20029;-68
2023/05/13 00:29:52;;;;;;;5.07;3.03;;;;;;;;;;4993634;28;20047;-69
2023/05/13 00:32:19;;;;;;;5.15;3.10;;;;;;;;;;4993784;28;20042;-69
2023/05/13 00:34:45;;;;;;;4.57;2.78;;;;;;;;;;4993978;28;20030;-69
2023/05/13 00:37:12;;;;;;;4.07;2.85;;;;;;;;;;4993914;28;20420;-68
2023/05/13 00:39:39;;;;;;;4.22;2.58;;;;;;;;;;4993541;28;20042;-68
2023/05/13 00:42:05;;;;;;;6.03;2.75;;;;;;;;;;4993630;28;20022;-68
2023/05/13 00:44:32;;;;;;;2.95;2.13;;;;;;;;;;4992258;28;20030;-68
2023/05/13 00:46:58;;;;;;;5.22;2.20;;;;;;;;;;4993653;28;20022;-69
2023/05/13 00:49:25;;;;;;;4.15;2.58;;;;;;;;;;4993529;28;20038;-69
2023/05/13 00:51:53;;;;;;;3.08;2.63;;;;;;;;;;4993580;28;20023;-68
2023/05/13 00:54:20;;;;;;;3.53;2.80;;;;;;;;;;5025064;28;20027;-69
2023/05/13 00:56:46;;;;;;;4.53;2.55;;;;;;;;;;4993292;28;20026;-69
2023/05/13 00:59:13;;;;;;;3.33;2.78;;;;;;;;;;4993403;28;20025;-68
2023/05/13 01:01:52;;;;;;;3.75;2.65;;;;;;;;;;4993770;28;20045;-68
2023/05/13 01:04:37;;;;;;;2.85;2.58;;;;;;;;;;4993321;28;20026;-68
2023/05/13 01:07:19;;;;;;;4.53;3.35;;;;;;;;;;4993279;28;20476;-69
2023/05/13 01:09:48;;;;;;;4.38;3.20;;;;;;;;;;4993153;28;20039;-69
2023/05/13 01:12:20;;;;;;;7.88;3.35;;;;;;;;;;4993391;28;20038;-68
2023/05/13 01:14:58;;;;;;;4.97;3.20;;;;;;;;;;4993227;28;20029;-68
2023/05/13 01:17:28;;;;;;;8.27;3.42;;;;;;;;;;4992977;28;20030;-69
2023/05/13 01:19:55;;;;;;;3.90;3.50;;;;;;;;;;4993345;28;20026;-69
2023/05/13 01:22:21;;;;;;;5.22;3.83;;;;;;;;;;4993293;28;20517;-68
2023/05/13 01:24:49;;;;;;;4.32;3.35;;;;;;;;;;4993490;28;20030;-69
2023/05/13 01:27:16;;;;;;;4.20;3.10;;;;;;;;;;4992918;28;20019;-68
2023/05/13 01:29:42;;;;;;;4.15;3.35;;;;;;;;;;4992980;28;20488;-68
2023/05/13 01:32:09;;;;;;;5.38;3.60;;;;;;;;;;4992727;28;20034;-69
2023/05/13 01:34:39;;;;;;;7.70;3.60;;;;;;;;;;4992894;28;20046;-68
2023/05/13 01:37:05;;;;;;;3.60;2.55;;;;;;;;;;4992797;28;20506;-68
2023/05/13 01:39:32;;;;;;;3.80;3.22;;;;;;;;;;4992888;28;20060;-68
2023/05/13 01:41:58;;;;;;;6.20;3.20;;;;;;;;;;4992827;28;20025;-69
2023/05/13 01:44:25;;;;;;;3.47;2.80;;;;;;;;;;4991556;28;20034;-68
2023/05/13 01:46:52;;;;;;;4.55;2.97;;;;;;;;;;4992803;28;20022;-68
2023/05/13 01:49:18;;;;;;;3.90;3.03;;;;;;;;;;4992499;28;20034;-69
2023/05/13 01:51:44;;;;;;;4.35;2.70;;;;;;;;;;4992634;28;20038;-69
2023/05/13 01:54:11;;;;;;;5.05;2.88;;;;;;;;;;4992910;28;20027;-68
2023/05/13 01:56:38;;;;;;;5.80;2.90;;;;;;;;;;4992465;28;20049;-68
2023/05/13 01:59:04;;;;;;;6.10;3.30;;;;;;;;;;4992606;28;20022;-68
2023/05/13 02:01:30;;;;;;;5.75;3.30;;;;;;;;;;4992600;28;20044;-68
2023/05/13 02:03:58;;;;;;;3.10;2.80;;;;;;;;;;4992734;28;20033;-68
2023/05/13 02:06:26;;;;;;;6.75;3.25;;;;;;;;;;4996633;28;20023;-68
2023/05/13 02:08:53;;;;;;;4.55;3.30;;;;;;;;;;4996685;28;20041;-68
2023/05/13 02:11:21;;;;;;;3.08;2.63;;;;;;;;;;4996265;28;20026;-69
2023/05/13 02:13:47;;;;;;;3.13;2.80;;;;;;;;;;4996680;28;20022;-69
2023/05/13 02:16:14;;;;;;;5.45;2.40;;;;;;;;;;4996393;28;20026;-68
2023/05/13 02:18:40;;;;;;;6.68;2.50;;;;;;;;;;4996376;28;20077;-68
2023/05/13 02:21:07;;;;;;;4.50;2.40;;;;;;;;;;4996309;28;20479;-68
2023/05/13 02:23:33;;;;;;;6.55;2.40;;;;;;;;;;4996564;28;20031;-68
2023/05/13 02:25:59;;;;;;;3.65;2.20;;;;;;;;;;4996181;28;20045;-69
2023/05/13 02:28:26;;;;;;;4.07;2.03;;;;;;;;;;4996095;28;20018;-68
2023/05/13 02:30:52;;;;;;;3.28;2.63;;;;;;;;;;4995893;28;20034;-69
2023/05/13 02:33:18;;;;;;;2.47;2.10;;;;;;;;;;4996215;28;20027;-68
2023/05/13 02:35:45;;;;;;;5.35;2.13;;;;;;;;;;4996025;28;20030;-68
2023/05/13 02:38:11;;;;;;;2.65;2.45;;;;;;;;;;4996077;28;20484;-68
2023/05/13 02:40:38;;;;;;;2.30;2.10;;;;;;;;;;4995837;28;20313;-69
2023/05/13 02:43:04;;;;;;;2.60;2.40;;;;;;;;;;4995984;28;20029;-69
2023/05/13 02:45:30;;;;;;;2.45;2.20;;;;;;;;;;4995890;28;20026;-68
2023/05/13 02:47:57;;;;;;;3.95;2.10;;;;;;;;;;4996246;28;20022;-68
2023/05/13 02:50:23;;;;;;;5.35;2.65;;;;;;;;;;4995513;28;20065;-69
2023/05/13 02:52:49;;;;;;;3.05;2.25;;;;;;;;;;4995507;28;20442;-68
2023/05/13 02:55:16;;;;;;;2.75;2.00;;;;;;;;;;4995735;28;20061;-68
2023/05/13 02:57:42;;;;;;;2.95;2.10;;;;;;;;;;4995590;28;20395;-69
2023/05/13 03:00:10;;;;;;;2.45;2.25;;;;;;;;;;4995660;28;20498;-68
2023/05/13 03:02:36;;;;;;;2.92;2.10;;;;;;;;;;4995627;28;20483;-68
2023/05/13 03:05:03;;;;;;;2.47;2.20;;;;;;;;;;4995552;28;20480;-69
2023/05/13 03:07:29;;;;;;;2.50;2.30;;;;;;;;;;4995211;28;20026;-69
2023/05/13 03:09:55;;;;;;;4.38;2.50;;;;;;;;;;5010512;28;20042;-68
2023/05/13 03:12:22;;;;;;;3.17;2.50;;;;;;;;;;4995387;28;20383;-68
2023/05/13 03:14:48;;;;;;;4.00;2.35;;;;;;;;;;4995355;28;20080;-69
2023/05/13 03:17:15;;;;;;;4.10;2.65;;;;;;;;;;5025852;28;20030;-69
2023/05/13 03:19:41;;;;;;;4.82;2.47;;;;;;;;;;4995172;28;20057;-69
2023/05/13 03:22:07;;;;;;;3.50;2.30;;;;;;;;;;4995043;28;20022;-69
2023/05/13 03:24:34;;;;;;;7.78;2.47;;;;;;;;;;4995236;28;20037;-68
2023/05/13 03:27:00;;;;;;;4.88;2.60;;;;;;;;;;4994039;28;20022;-69
2023/05/13 03:29:26;;;;;;;4.38;2.35;;;;;;;;;;4994900;28;20034;-69
2023/05/13 03:31:53;;;;;;;3.10;2.42;;;;;;;;;;5009988;28;20038;-68
2023/05/13 03:34:19;;;;;;;6.15;2.88;;;;;;;;;;4995028;28;20040;-69
2023/05/13 03:36:45;;;;;;;4.72;2.70;;;;;;;;;;4995205;28;20034;-68
2023/05/13 03:39:12;;;;;;;6.07;2.78;;;;;;;;;;4995381;28;20026;-69
2023/05/13 03:41:38;;;;;;;5.47;3.08;;;;;;;;;;4994926;28;20067;-68
2023/05/13 03:44:05;;;;;;;4.03;3.20;;;;;;;;;;4994718;28;20022;-68
2023/05/13 03:46:32;;;;;;;6.85;2.35;;;;;;;;;;4995212;28;20034;-68
2023/05/13 03:48:59;;;;;;;4.05;3.20;;;;;;;;;;4994754;28;20034;-68
2023/05/13 03:51:25;;;;;;;5.97;2.88;;;;;;;;;;4994470;28;20026;-68
2023/05/13 03:53:52;;;;;;;3.03;2.70;;;;;;;;;;4995029;28;20022;-68
2023/05/13 03:56:18;;;;;;;5.00;2.70;;;;;;;;;;4994880;28;20042;-68
2023/05/13 03:58:44;;;;;;;4.35;2.83;;;;;;;;;;4994563;28;20034;-68
2023/05/13 04:01:11;;;;;;;4.75;2.92;;;;;;;;;;4994660;28;20026;-68
2023/05/13 04:03:37;;;;;;;5.55;3.08;;;;;;;;;;4994569;28;20029;-68
2023/05/13 04:06:04;;;;;;;10.07;3.10;;;;;;;;;;4994629;28;20026;-68
2023/05/13 04:08:30;;;;;;;3.03;2.70;;;;;;;;;;4994616;28;20026;-68
2023/05/13 04:10:56;;;;;;;3.33;2.72;;;;;;;;;;4994230;28;20035;-69
2023/05/13 04:13:23;;;;;;;3.45;2.92;;;;;;;;;;4994641;28;20049;-68
2023/05/13 04:15:49;;;;;;;5.30;3.50;;;;;;;;;;4994555;28;20041;-69
2023/05/13 04:18:15;;;;;;;3.63;3.08;;;;;;;;;;4994394;28;20026;-69
2023/05/13 04:20:42;;;;;;;6.47;3.22;;;;;;;;;;4993918;28;20027;-68
2023/05/13 04:23:09;;;;;;;5.63;3.30;;;;;;;;;;4994333;28;20494;-68
2023/05/13 04:25:36;;;;;;;4.35;3.28;;;;;;;;;;4994176;28;20030;-69
2023/05/13 04:28:02;;;;;;;6.57;3.60;;;;;;;;;;4993910;28;20021;-68
2023/05/13 04:30:29;;;;;;;5.32;3.50;;;;;;;;;;4993920;28;20426;-69
2023/05/13 04:32:56;;;;;;;7.18;3.38;;;;;;;;;;4993773;28;20046;-68
2023/05/13 04:35:22;;;;;;;5.13;3.38;;;;;;;;;;4993643;28;20418;-69
2023/05/13 04:37:48;;;;;;;6.15;3.20;;;;;;;;;;4993891;28;20037;-69
2023/05/13 04:40:15;;;;;;;7.95;3.42;;;;;;;;;;4993783;28;20388;-69
2023/05/13 04:42:41;;;;;;;3.63;3.15;;;;;;;;;;4993872;28;20018;-69
2023/05/13 04:45:08;;;;;;;4.53;2.90;;;;;;;;;;4993572;28;20492;-68
2023/05/13 04:47:34;;;;;;;4.53;3.17;;;;;;;;;;4993552;28;20020;-68
2023/05/13 04:50:01;;;;;;;6.00;3.10;;;;;;;;;;4993373;28;20503;-68
2023/05/13 04:52:27;;;;;;;5.72;3.08;;;;;;;;;;4993518;28;20030;-68
2023/05/13 04:54:54;;;;;;;4.57;3.13;;;;;;;;;;4993326;28;20031;-69
2023/05/13 04:57:20;;;;;;;6.60;3.70;;;;;;;;;;4993496;28;20472;-68
2023/05/13 04:59:46;;;;;;;4.15;3.30;;;;;;;;;;4993634;28;20033;-68
2023/05/13 05:02:12;;;;;;;7.97;3.13;;;;;;;;;;4993359;28;20027;-69
2023/05/13 05:04:39;;;;;;;5.70;3.55;;;;;;;;;;4993348;28;20030;-69
2023/05/13 05:07:05;;;;;;;3.95;3.55;;;;;;;;;;4993263;28;20022;-69
2023/05/13 05:09:32;;;;;;;4.80;3.63;;;;;;;;;;4993060;28;20038;-69
2023/05/13 05:11:58;;;;;;;4.63;3.45;;;;;;;;;;4993328;28;20026;-69
2023/05/13 05:14:25;;;;;;;10.25;3.60;;;;;;;;;;4993180;28;20030;-69
2023/05/13 05:16:51;;;;;;;5.28;3.35;;;;;;;;;;4993417;28;20015;-68
2023/05/13 05:19:22;;;;;;;5.60;3.38;;;;;;;;;;4992939;28;20479;-68
2023/05/13 05:21:50;;;;;;;6.05;3.63;;;;;;;;;;4993075;28;20032;-69
2023/05/13 05:24:16;;;;;;;5.93;3.42;;;;;;;;;;4992942;28;20026;-68
2023/05/13 05:26:42;;;;;;;6.43;4.32;;;;;;;;;;4993239;28;20031;-69
2023/05/13 05:29:09;;;;;;;6.70;4.15;;;;;;;;;;4992840;28;20496;-69
2023/05/13 05:31:35;;;;;;;5.00;3.72;;;;;;;;;;4992781;28;20054;-69
2023/05/13 05:34:01;;;;;;;4.95;3.63;;;;;;;;;;4992989;28;20026;-68
2023/05/13 05:36:29;;;;;;;7.22;4.00;;;;;;;;;;4992912;28;20034;-68
2023/05/13 05:38:55;;;;;;;5.13;3.63;;;;;;;;;;4992065;28;20441;-69
2023/05/13 05:41:21;;;;;;;7.53;3.78;;;;;;;;;;4992770;28;20026;-69
2023/05/13 05:43:48;;;;;;;4.32;3.50;;;;;;;;;;4992811;28;20028;-69
2023/05/13 05:46:15;;;;;;;6.07;3.70;;;;;;;;;;4992728;28;20026;-69
2023/05/13 05:48:41;;;;;;;3.50;3.20;;;;;;;;;;4992510;28;20031;-69
2023/05/13 05:51:08;;;;;;;4.75;3.67;;;;;;;;;;4992701;28;20030;-69
2023/05/13 05:53:36;;;;;;;5.22;3.50;;;;;;;;;;4992959;28;20022;-68
2023/05/13 05:56:03;;;;;;;3.30;2.85;;;;;;;;;;4992516;28;20052;-69
2023/05/13 05:58:29;;;;;;;6.55;3.42;;;;;;;;;;4992548;28;20026;-69
2023/05/13 06:00:57;;;;;;;3.60;2.45;;;;;;;;;;4992645;28;20015;-68
2023/05/13 06:03:23;;;;;;;4.93;2.47;;;;;;;;;;4992685;28;20027;-69
2023/05/13 06:05:49;;;;;;;4.35;2.40;;;;;;;;;;4992597;28;20053;-69
2023/05/13 06:08:16;;;;;;;3.30;2.60;;;;;;;;;;4992511;28;20498;-69
2023/05/13 06:10:42;;;;;;;3.03;2.78;;;;;;;;;;4992386;28;20041;-68
2023/05/13 06:13:09;;;;;;;6.13;3.05;;;;;;;;;;4991643;28;20034;-68
2023/05/13 06:15:35;;;;;;;4.20;2.65;;;;;;;;;;4992461;28;20022;-68
2023/05/13 06:18:04;;;;;;;3.90;2.25;;;;;;;;;;4991764;28;20414;-68
2023/05/13 06:20:31;;;;;;;4.63;2.60;;;;;;;;;;4992487;28;20387;-68
2023/05/13 06:22:57;;;;;;;3.08;2.78;;;;;;;;;;4992957;28;20026;-68
2023/05/13 06:25:23;;;;;;;4.15;2.67;;;;;;;;;;4992422;28;20030;-68
2023/05/13 06:27:49;;;;;;;3.67;2.80;;;;;;;;;;4992357;28;20022;-68
2023/05/13 06:30:16;;;;;;;4.00;3.28;;;;;;;;;;4992071;28;20041;-69
2023/05/13 06:32:42;;;;;;;4.53;3.25;;;;;;;;;;4992150;28;20038;-70
2023/05/13 06:35:09;;;;;;;6.10;3.60;;;;;;;;;;4992491;28;20040;-68
2023/05/13 06:37:35;;;;;;;5.57;3.17;;;;;;;;;;4992285;28;20023;-69
2023/05/13 06:40:01;;;;;;;11.70;8.63;;;;;;;;;;4991358;28;20034;-69
2023/05/13 06:42:28;;;;;;;24.00;14.68;;;;;;;;;;4992302;28;20025;-68
2023/05/13 06:44:54;;;;;;;11.15;8.32;;;;;;;;;;4992099;28;20502;-68
2023/05/13 06:47:20;;;;;;;6.78;4.63;;;;;;;;;;4992204;28;20070;-68
2023/05/13 06:49:47;;;;;;;7.15;4.18;;;;;;;;;;4992228;28;20427;-68
2023/05/13 06:52:13;;;;;;;5.60;4.28;;;;;;;;;;4995701;28;20483;-69
2023/05/13 06:54:40;;;;;;;9.35;4.38;;;;;;;;;;4995696;28;20023;-68
2023/05/13 06:57:06;;;;;;;5.15;4.13;;;;;;;;;;4995634;28;20049;-69
2023/05/13 06:59:32;;;;;;;4.13;3.28;;;;;;;;;;4995541;28;20510;-69
2023/05/13 07:01:59;;;;;;;5.10;3.80;;;;;;;;;;4996056;28;20026;-68
2023/05/13 07:04:25;;;;;;;5.63;4.00;;;;;;;;;;4995671;28;20038;-69
2023/05/13 07:06:53;;;;;;;4.50;3.50;;;;;;;;;;4995547;28;20026;-69
2023/05/13 07:09:19;;;;;;;5.88;3.70;;;;;;;;;;4995416;28;20500;-69
2023/05/13 07:11:46;;;;;;;7.20;3.80;;;;;;;;;;4995716;28;20029;-69
2023/05/13 07:14:12;;;;;;;5.15;3.35;;;;;;;;;;4994136;28;20040;-68
2023/05/13 07:16:38;;;;;;;6.80;3.88;;;;;;;;;;4995448;28;20165;-69
2023/05/13 07:19:05;;;;;;;5.28;4.03;;;;;;;;;;4995327;28;20026;-68
2023/05/13 07:21:31;;;;;;;6.38;4.28;;;;;;;;;;4995185;28;20030;-69
2023/05/13 07:23:57;;;;;;;4.78;3.70;;;;;;;;;;4995626;28;20054;-69
2023/05/13 07:26:24;;;;;;;6.55;3.90;;;;;;;;;;4995170;28;20026;-69
2023/05/13 07:28:50;;;;;;;4.40;3.70;;;;;;;;;;4994873;28;20027;-69
2023/05/13 07:31:16;;;;;;;4.82;3.72;;;;;;;;;;4994951;28;20042;-68
2023/05/13 07:33:43;;;;;;;4.65;3.72;;;;;;;;;;4994873;28;20056;-69
2023/05/13 07:36:09;;;;;;;5.75;3.67;;;;;;;;;;4995410;28;20036;-69
2023/05/13 07:38:36;;;;;;;7.05;4.47;;;;;;;;;;4994941;28;20023;-69
2023/05/13 07:41:02;;;;;;;7.40;4.13;;;;;;;;;;4994948;28;20484;-68
2023/05/13 07:43:28;;;;;;;5.75;4.30;;;;;;;;;;4994665;28;20036;-69
2023/05/13 07:45:55;;;;;;;5.07;4.10;;;;;;;;;;4994885;28;20460;-68
2023/05/13 07:48:23;;;;;;;6.93;4.47;;;;;;;;;;4994782;28;20041;-69
2023/05/13 07:50:49;;;;;;;11.25;6.93;;;;;;;;;;4994538;28;20030;-68
2023/05/13 07:53:16;;;;;;;11.85;4.70;;;;;;;;;;4994884;28;20038;-69
2023/05/13 07:55:42;;;;;;;10.70;4.90;;;;;;;;;;4994597;28;20042;-69
2023/05/13 07:58:08;;;;;;;8.20;5.00;;;;;;;;;;4994311;28;20549;-69
2023/05/13 08:00:34;;;;;;;6.03;4.53;;;;;;;;;;4994694;28;20037;-69
2023/05/13 08:03:01;;;;;;;6.05;4.32;;;;;;;;;;4993896;28;20018;-68
2023/05/13 08:05:27;;;;;;;4.65;3.63;;;;;;;;;;4994614;28;20041;-69
2023/05/13 08:07:53;;;;;;;3.83;3.05;;;;;;;;;;4994377;28;20023;-69
2023/05/13 08:10:20;;;;;;;2.58;2.38;;;;;;;;;;4994235;28;20046;-68
2023/05/13 08:12:51;;;;;;;3.08;2.67;;;;;;;;;;4994106;28;20456;-69
2023/05/13 08:15:17;;;;;;;2.75;2.30;;;;;;;;;;4994448;28;20022;-68
2023/05/13 08:17:43;;;;;;;3.30;2.50;;;;;;;;;;4994464;28;20074;-68
2023/05/13 08:20:10;;;;;;;4.47;3.13;;;;;;;;;;4994238;28;20054;-69
2023/05/13 08:22:36;;;;;;;5.35;3.83;;;;;;;;;;4994551;28;20027;-69
2023/05/13 08:25:03;;;;;;;4.88;3.80;;;;;;;;;;4993970;28;20477;-69
2023/05/13 08:27:29;;;;;;;4.47;4.07;;;;;;;;;;4993718;28;20022;-69
2023/05/13 08:29:55;;;;;;;5.75;4.35;;;;;;;;;;4994025;28;20053;-69
2023/05/13 08:32:22;;;;;;;5.82;3.80;;;;;;;;;;4993814;28;20042;-69
2023/05/13 08:34:48;;;;;;;7.72;4.30;;;;;;;;;;4993899;28;20491;-69
2023/05/13 08:37:15;;;;;;;5.00;3.97;;;;;;;;;;4993914;28;20398;-68
2023/05/13 08:39:41;;;;;;;4.00;3.42;;;;;;;;;;4993883;28;20026;-68
2023/05/13 08:42:08;;;;;;;3.88;3.08;;;;;;;;;;4993530;28;20026;-68
2023/05/13 08:44:37;;;;;;;5.18;3.00;;;;;;;;;;5025324;28;20403;-69
2023/05/13 08:47:06;;;;;;;3.38;2.85;;;;;;;;;;4993555;28;20069;-69
2023/05/13 08:49:34;;;;;;;6.03;4.30;;;;;;;;;;4993545;28;20038;-69
2023/05/13 08:52:00;;;;;;;4.97;3.83;;;;;;;;;;4993714;28;20033;-69
2023/05/13 08:54:27;;;;;;;4.50;3.50;;;;;;;;;;4993585;28;20488;-69
2023/05/13 08:56:54;;;;;;;5.07;4.50;;;;;;;;;;4991923;28;20382;-69
2023/05/13 08:59:20;;;;;;;4.18;3.40;;;;;;;;;;4993439;28;20072;-69
2023/05/13 09:01:49;;;;;;;4.43;2.88;;;;;;;;;;4993415;28;20392;-69
2023/05/13 09:04:15;;;;;;;3.20;2.65;;;;;;;;;;4993421;28;20075;-69
2023/05/13 09:06:42;;;;;;;4.60;3.00;;;;;;;;;;4993527;28;20021;-69
2023/05/13 09:09:08;;;;;;;3.67;2.70;;;;;;;;;;4993191;28;20041;-69
2023/05/13 09:11:34;;;;;;;3.15;2.67;;;;;;;;;;4993616;28;20029;-69
2023/05/13 09:14:02;;;;;;;2.42;2.17;;;;;;;;;;4992321;28;20022;-69
2023/05/13 09:16:29;;;;;;;2.70;2.50;;;;;;;;;;4993355;28;20038;-70
2023/05/13 09:18:59;;;;;;;4.68;2.60;;;;;;;;;;4993401;28;20014;-69
2023/05/13 09:21:26;;;;;;;2.60;2.40;;;;;;;;;;4991388;28;20034;-68
2023/05/13 09:24:02;;;;;;;4.47;2.78;;;;;;;;;;4992125;28;20026;-69
2023/05/13 09:26:29;;;;;;;7.10;2.50;;;;;;;;;;4972513;28;20033;-69
2023/05/13 09:29:14;;;;;;;3.50;2.70;;;;;;;;;;5013461;28;20034;-68
2023/05/13 09:31:41;;;;;;;3.40;2.33;;;;;;;;;;4991565;28;20052;-69
2023/05/13 09:34:07;;;;;;;5.38;2.00;;;;;;;;;;4990422;28;20032;-69
2023/05/13 09:36:33;;;;;;;2.33;1.98;;;;;;;;;;4991620;28;20031;-68
2023/05/13 09:39:00;;;;;;;2.83;2.13;;;;;;;;;;4991536;28;20080;-68
2023/05/13 09:41:26;;;;;;;2.08;1.88;;;;;;;;;;4991427;28;20479;-69
2023/05/13 09:43:53;;;;;;;2.00;1.80;;;;;;;;;;4991639;28;20533;-69
2023/05/13 09:46:20;;;;;;;2.85;1.95;;;;;;;;;;4991295;28;20486;-69
2023/05/13 09:48:46;;;;;;;2.08;1.80;;;;;;;;;;4991561;28;20053;-69
2023/05/13 09:51:15;;;;;;;2.85;2.00;;;;;;;;;;4991481;28;20045;-68
2023/05/13 09:53:41;;;;;;;2.15;1.80;;;;;;;;;;4991335;28;20027;-69
2023/05/13 09:56:09;;;;;;;1.88;1.60;;;;;;;;;;4991652;28;20030;-68
2023/05/13 09:58:35;;;;;;;2.17;1.98;;;;;;;;;;4991444;28;20038;-69
2023/05/13 10:01:02;;;;;;;2.88;1.95;;;;;;;;;;4991605;28;20398;-68
2023/05/13 10:03:30;;;;;;;4.43;2.00;;;;;;;;;;4991501;28;20038;-69
2023/05/13 10:05:56;;;;;;;3.47;2.00;;;;;;;;;;4991441;28;20038;-69
2023/05/13 10:08:23;;;;;;;3.22;2.10;;;;;;;;;;4991524;28;20041;-69
2023/05/13 10:10:50;;;;;;;2.63;1.75;;;;;;;;;;4991404;28;20042;-68
2023/05/13 10:13:18;;;;;;;2.08;1.63;;;;;;;;;;4991556;28;20436;-69
2023/05/13 10:15:51;;;;;;;2.17;1.80;;;;;;;;;;4991678;28;20034;-68
2023/05/13 10:18:19;;;;;;;1.75;1.60;;;;;;;;;;4990175;28;20025;-68
2023/05/13 10:20:46;;;;;;;2.28;2.00;;;;;;;;;;4991463;28;20033;-69
2023/05/13 10:23:13;;;;;;;2.45;1.90;;;;;;;;;;4991927;28;20029;-68
2023/05/13 10:25:39;;;;;;;3.70;1.98;;;;;;;;;;4993712;28;20029;-69
2023/05/13 10:28:06;;;;;;;1.60;1.50;;;;;;;;;;4996361;28;20027;-68
2023/05/13 10:30:34;;;;;;;2.08;1.80;;;;;;;;;;4996358;28;20037;-68
2023/05/13 10:33:01;;;;;;;1.77;1.38;;;;;;;;;;4996138;28;20040;-69
2023/05/13 10:35:30;;;;;;;2.00;1.35;;;;;;;;;;4996095;28;20022;-68
2023/05/13 10:38:03;;;;;;;2.42;1.77;;;;;;;;;;4995971;28;20022;-69
2023/05/13 10:40:54;;;;;;;2.60;1.83;;;;;;;;;;4996454;28;20215;-69
2023/05/13 10:43:21;;;;;;;2.55;1.55;;;;;;;;;;4995993;28;20028;-69
2023/05/13 10:45:49;;;;;;;1.80;1.50;;;;;;;;;;4996065;28;20068;-69
2023/05/13 10:48:16;;;;;;;4.38;1.63;;;;;;;;;;4995862;28;20515;-68
2023/05/13 10:50:53;;;;;;;1.90;1.80;;;;;;;;;;4995620;28;20043;-68
2023/05/13 10:53:29;;;;;;;2.20;1.70;;;;;;;;;;4995564;28;20052;-68
2023/05/13 10:55:58;;;;;;;2.08;1.30;;;;;;;;;;4995930;28;20022;-68
2023/05/13 10:58:31;;;;;;;1.50;1.40;;;;;;;;;;4995999;28;20037;-68
2023/05/13 11:01:13;;;;;;;3.58;1.25;;;;;;;;;;4996031;28;20026;-68
2023/05/13 11:03:39;;;;;;;2.78;1.10;;;;;;;;;;4995696;28;20034;-68
2023/05/13 11:06:17;;;;;;;4.97;1.23;;;;;;;;;;4995709;28;20027;-69
2023/05/13 11:08:45;;;;;;;1.27;1.10;;;;;;;;;;4995386;28;20026;-69
2023/05/13 11:11:21;;;;;;;2.40;1.50;;;;;;;;;;4995375;28;20414;-69
2023/05/13 11:13:51;;;;;;;1.52;1.30;;;;;;;;;;4994602;28;20026;-69
2023/05/13 11:16:18;;;;;;;1.13;0.90;;;;;;;;;;4995363;28;20047;-68
2023/05/13 11:18:44;;;;;;;1.13;1.02;;;;;;;;;;4995230;28;20027;-68
2023/05/13 11:21:11;;;;;;;1.98;0.90;;;;;;;;;;4995418;28;20042;-68
2023/05/13 11:23:56;;;;;;;0.95;0.88;;;;;;;;;;4995268;28;20023;-68
2023/05/13 11:26:23;;;;;;;0.70;0.70;;;;;;;;;;4995462;28;20030;-68
2023/05/13 11:29:05;;;;;;;4.13;0.85;;;;;;;;;;4995464;28;20072;-68
2023/05/13 11:31:43;;;;;;;0.70;0.60;;;;;;;;;;4994930;28;20050;-68
2023/05/13 11:34:11;;;;;;;0.70;0.70;;;;;;;;;;4994991;28;20076;-68
2023/05/13 11:36:39;;;;;;;0.75;0.63;;;;;;;;;;4994228;28;20018;-69
2023/05/13 11:39:06;;;;;;;1.15;0.60;;;;;;;;;;4994655;28;20091;-68
2023/05/13 11:41:33;;;;;;;0.85;0.57;;;;;;;;;;4994830;28;20502;-68
2023/05/13 11:44:02;;;;;;;0.82;0.70;;;;;;;;;;4995113;28;20034;-68
2023/05/13 11:46:28;;;;;;;0.75;0.60;;;;;;;;;;4995078;28;20027;-68
2023/05/13 11:48:55;;;;;;;4.53;0.77;;;;;;;;;;4995080;28;20023;-68
2023/05/13 11:51:21;;;;;;;0.75;0.75;;;;;;;;;;4994312;28;20041;-68
2023/05/13 11:53:48;;;;;;;2.00;0.90;;;;;;;;;;4995023;28;20031;-68
2023/05/13 11:56:14;;;;;;;0.50;0.50;;;;;;;;;;5026167;28;20014;-69
2023/05/13 11:58:40;;;;;;;0.90;0.57;;;;;;;;;;4994526;28;20022;-68
2023/05/13 12:01:12;;;;;;;0.95;0.60;;;;;;;;;;4994698;28;20036;-68
2023/05/13 12:03:38;;;;;;;1.10;0.70;;;;;;;;;;4994641;28;20029;-69
2023/05/13 12:06:04;;;;;;;0.65;0.50;;;;;;;;;;4994314;28;20395;-68
2023/05/13 12:08:31;;;;;;;0.80;0.80;;;;;;;;;;4994327;28;20395;-68
2023/05/13 12:10:58;;;;;;;0.73;0.73;;;;;;;;;;4994377;28;20042;-68
2023/05/13 12:13:25;;;;;;;0.68;0.68;;;;;;;;;;4994170;28;20032;-68
2023/05/13 12:15:52;;;;;;;1.10;0.68;;;;;;;;;;4994308;28;20038;-68
2023/05/13 12:18:18;;;;;;;1.23;1.02;;;;;;;;;;4994031;28;20034;-68
2023/05/13 12:20:45;;;;;;;2.03;1.10;;;;;;;;;;4994205;28;20406;-68
2023/05/13 12:23:11;;;;;;;1.60;1.25;;;;;;;;;;4994420;28;20024;-68
2023/05/13 12:25:39;;;;;;;3.65;1.42;;;;;;;;;;4994136;28;20076;-69
2023/05/13 12:28:10;;;;;;;1.35;1.20;;;;;;;;;;4993958;28;20035;-68
2023/05/13 12:30:38;;;;;;;2.88;1.88;;;;;;;;;;4993874;28;20148;-68
2023/05/13 12:33:04;;;;;;;2.17;1.60;;;;;;;;;;4993613;28;20377;-68
2023/05/13 12:35:31;;;;;;;3.95;3.00;;;;;;;;;;4993763;28;20031;-69
2023/05/13 12:37:58;;;;;;;4.68;3.40;;;;;;;;;;4994147;28;20026;-69
2023/05/13 12:40:26;;;;;;;1.33;1.23;;;;;;;;;;4993870;28;20022;-68
2023/05/13 12:42:55;;;;;;;2.20;1.20;;;;;;;;;;4993778;28;20018;-69
2023/05/13 12:45:21;;;;;;;2.13;1.50;;;;;;;;;;4993790;28;20446;-68
2023/05/13 12:47:52;;;;;;;1.38;1.20;;;;;;;;;;4993337;28;20034;-68
2023/05/13 12:50:18;;;;;;;2.35;1.50;;;;;;;;;;4993667;28;20048;-69
2023/05/13 12:52:45;;;;;;;1.17;1.10;;;;;;;;;;4993833;28;20030;-68
2023/05/13 12:55:12;;;;;;;1.90;1.80;;;;;;;;;;4993553;28;20427;-68
2023/05/13 12:57:40;;;;;;;3.85;1.40;;;;;;;;;;4993406;28;20033;-68
2023/05/13 13:00:09;;;;;;;1.45;1.30;;;;;;;;;;4993458;28;20036;-68
2023/05/13 13:02:36;;;;;;;1.33;1.23;;;;;;;;;;5024977;28;20022;-68
2023/05/13 13:05:03;;;;;;;5.68;1.52;;;;;;;;;;4993565;28;20026;-69
2023/05/13 13:07:29;;;;;;;1.95;1.10;;;;;;;;;;4993192;28;20026;-69
2023/05/13 13:09:56;;;;;;;0.95;0.60;;;;;;;;;;4993140;28;20034;-68
2023/05/13 13:12:22;;;;;;;0.68;0.68;;;;;;;;;;4993495;28;20038;-69
2023/05/13 13:14:48;;;;;;;1.00;0.50;;;;;;;;;;4993176;28;20030;-69
2023/05/13 13:17:15;;;;;;;0.68;0.60;;;;;;;;;;4993053;28;20068;-69
2023/05/13 13:19:41;;;;;;;0.70;0.70;;;;;;;;;;4993033;28;20042;-69
2023/05/13 13:22:08;;;;;;;3.08;0.90;;;;;;;;;;4992969;28;20031;-68
2023/05/13 13:24:34;;;;;;;2.20;0.82;;;;;;;;;;4993608;28;20493;-69
2023/05/13 13:27:00;;;;;;;0.95;0.73;;;;;;;;;;4993239;28;20022;-68
2023/05/13 13:29:27;;;;;;;2.17;0.90;;;;;;;;;;4992851;28;20026;-69
2023/05/13 13:31:53;;;;;;;1.02;1.00;;;;;;;;;;4992658;28;20050;-69
2023/05/13 13:34:19;;;;;;;1.75;0.90;;;;;;;;;;4992792;28;20053;-69
2023/05/13 13:36:46;;;;;;;2.17;1.00;;;;;;;;;;4993123;28;20019;-69
2023/05/13 13:39:12;;;;;;;2.20;0.80;;;;;;;;;;4992883;28;20018;-69
2023/05/13 13:41:39;;;;;;;0.90;0.75;;;;;;;;;;4993326;28;20041;-69
2023/05/13 13:44:05;;;;;;;1.17;0.80;;;;;;;;;;4992807;28;20018;-69
2023/05/13 13:46:31;;;;;;;0.60;0.60;;;;;;;;;;4992461;28;20029;-69
2023/05/13 13:48:57;;;;;;;1.42;0.82;;;;;;;;;;4992969;28;20034;-69
2023/05/13 13:51:24;;;;;;;0.68;0.68;;;;;;;;;;4992548;28;20026;-69
2023/05/13 13:53:50;;;;;;;1.85;0.60;;;;;;;;;;4992852;28;20037;-69
2023/05/13 13:56:16;;;;;;;5.30;0.80;;;;;;;;;;4992712;28;20045;-69
2023/05/13 13:58:43;;;;;;;0.60;0.60;;;;;;;;;;4992685;28;20459;-69
2023/05/13 14:01:09;;;;;;;0.50;0.50;;;;;;;;;;4997144;28;20024;-69
2023/05/13 14:03:35;;;;;;;1.67;0.63;;;;;;;;;;4999149;28;20025;-68
2023/05/13 14:06:02;;;;;;;0.55;0.55;;;;;;;;;;4999042;28;20033;-69
2023/05/13 14:08:28;;;;;;;1.58;0.60;;;;;;;;;;4999051;28;20023;-68
2023/05/13 14:10:54;;;;;;;1.27;0.55;;;;;;;;;;4998950;28;20484;-69
2023/05/13 14:13:21;;;;;;;0.85;0.82;;;;;;;;;;4998978;28;20521;-69
2023/05/13 14:15:47;;;;;;;0.95;0.70;;;;;;;;;;4999095;28;20026;-69
2023/05/13 14:18:13;;;;;;;1.33;1.20;;;;;;;;;;4999017;28;20025;-69
2023/05/13 14:20:39;;;;;;;0.77;0.60;;;;;;;;;;4999095;28;20390;-68
2023/05/13 14:23:06;;;;;;;1.85;0.70;;;;;;;;;;4998871;28;20387;-68
2023/05/13 14:25:32;;;;;;;0.95;0.50;;;;;;;;;;4999030;28;20027;-68
2023/05/13 14:27:58;;;;;;;0.98;0.70;;;;;;;;;;4998894;28;20400;-69
2023/05/13 14:30:26;;;;;;;0.93;0.70;;;;;;;;;;4998568;28;20035;-68
2023/05/13 14:32:52;;;;;;;1.17;0.50;;;;;;;;;;4998754;28;20042;-68
2023/05/13 14:35:19;;;;;;;0.40;0.40;;;;;;;;;;4999167;28;20035;-69
2023/05/13 14:37:45;;;;;;;0.60;0.52;;;;;;;;;;4998862;28;20526;-69
2023/05/13 14:40:11;;;;;;;0.75;0.45;;;;;;;;;;4999104;28;20030;-69
2023/05/13 14:42:38;;;;;;;0.98;0.60;;;;;;;;;;4998821;28;20428;-69